Time;durP1;ratioP1;P1;durP2;ratioP2;P2;SDS_P1;SDS_P2;PMS_P1;PMS_P2;Temp;Humidity;BMP_temperature;BMP_pressure;BME280_temperature;BME280_humidity;BME280_pressure;Samples;Min_cycle;Max_cycle;Signal;HPM_P1;HPM_P2
2022/05/04 00:00:56;;;;;;;;;;;;;;;;;;5096027;28;19916;-77
2022/05/04 00:03:21;;;;;;;;;;;;;;;;;;5096700;28;19916;-77
2022/05/04 00:05:48;;;;;;;;;;;;;;;;;;5096701;28;20278;-76
2022/05/04 00:08:13;;;;;;;;;;;;;;;;;;5096659;28;19916;-77
2022/05/04 00:10:39;;;;;;;;;;;;;;;;;;5096608;28;20278;-76
2022/05/04 00:13:04;;;;;;;;;;;;;;;;;;5095937;28;19920;-76
2022/05/04 00:15:29;;;;;;;;;;;;;;;;;;5096717;28;20011;-76
2022/05/04 00:17:55;;;;;;;;;;;;;;;;;;5096387;28;19920;-77
2022/05/04 00:20:20;;;;;;;;;;;;;;;;;;5095096;28;19912;-76
2022/05/04 00:22:45;;;;;;;;;;;;;;;;;;5095329;28;19920;-76
2022/05/04 00:25:11;;;;;;;;;;;;;;;;;;5096413;28;19969;-76
2022/05/04 00:27:37;;;;;;;;;;;;;;;;;;5092607;28;19920;-76
2022/05/04 00:30:03;;;;;;;;;;;;;;;;;;5085588;28;19920;-76
2022/05/04 00:32:28;;;;;;;;;;;;;;;;;;5085910;28;19921;-77
2022/05/04 00:34:54;;;;;;;;;;;;;;;;;;5076242;28;19999;-77
2022/05/04 00:37:19;;;;;;;;;;;;;;;;;;5086645;28;19923;-78
2022/05/04 00:39:47;;;;;;;;;;;;;;;;;;5083991;28;19939;-78
2022/05/04 00:42:13;;;;;;;;;;;;;;;;;;5086520;28;19941;-77
2022/05/04 00:44:39;;;;;;;;;;;;;;;;;;5083558;28;19969;-78
2022/05/04 00:47:05;;;;;;;;;;;;;;;;;;5085182;28;20374;-77
2022/05/04 00:49:30;;;;;;;;;;;;;;;;;;5090081;28;19923;-77
2022/05/04 00:51:56;;;;;;;;;;;;;;;;;;5096233;28;19916;-77
2022/05/04 00:54:21;;;;;;;;;;;;;;;;;;5094314;28;20052;-77
2022/05/04 00:56:47;;;;;;;;;;;;;;;;;;5094653;28;19927;-78
2022/05/04 00:59:13;;;;;;;;;;;;;;;;;;5095437;28;20010;-78
2022/05/04 01:01:38;;;;;;;;;;;;;;;;;;5095106;28;19962;-78
2022/05/04 01:04:04;;;;;;;;;;;;;;;;;;5095639;28;19916;-77
2022/05/04 01:06:29;;;;;;;;;;;;;;;;;;5094407;28;20023;-77
2022/05/04 01:08:55;;;;;;;;;;;;;;;;;;5094933;28;20006;-77
2022/05/04 01:11:21;;;;;;;;;;;;;;;;;;5095536;28;20305;-77
2022/05/04 01:14:03;;;;;;;;;;;;;;;;;;5095672;28;19916;-78
2022/05/04 01:16:29;;;;;;;;;;;;;;;;;;5075193;28;20274;-77
2022/05/04 01:18:54;;;;;;;;;;;;;;;;;;5075224;28;19913;-77
2022/05/04 01:21:19;;;;;;;;;;;;;;;;;;5074643;28;19916;-78
2022/05/04 01:23:46;;;;;;;;;;;;;;;;;;5088561;28;20011;-79
2022/05/04 01:26:12;;;;;;;;;;;;;;;;;;5092987;28;19922;-79
2022/05/04 01:28:37;;;;;;;;;;;;;;;;;;5090974;28;20031;-78
2022/05/04 01:31:02;;;;;;;;;;;;;;;;;;5092745;28;20441;-78
2022/05/04 01:33:28;;;;;;;;;;;;;;;;;;5092730;28;19921;-78
2022/05/04 01:35:53;;;;;;;;;;;;;;;;;;5092090;28;19915;-77
2022/05/04 01:38:18;;;;;;;;;;;;;;;;;;5094857;28;20012;-77
2022/05/04 01:40:45;;;;;;;;;;;;;;;;;;5094141;28;19916;-78
2022/05/04 01:43:10;;;;;;;;;;;;;;;;;;5091706;28;19916;-77
2022/05/04 01:45:35;;;;;;;;;;;;;;;;;;5092583;28;19920;-78
2022/05/04 01:48:01;;;;;;;;;;;;;;;;;;5091702;28;20053;-77
2022/05/04 01:50:26;;;;;;;;;;;;;;;;;;5092445;28;19920;-78
2022/05/04 01:52:51;;;;;;;;;;;;;;;;;;5091285;28;19916;-78
2022/05/04 01:55:17;;;;;;;;;;;;;;;;;;5109430;28;20289;-78
2022/05/04 01:57:42;;;;;;;;;;;;;;;;;;5114432;28;19916;-77
2022/05/04 02:00:08;;;;;;;;;;;;;;;;;;5115062;28;19919;-77
2022/05/04 02:02:42;;;;;;;;;;;;;;;;;;5113835;28;21527;-78
2022/05/04 02:05:07;;;;;;;;;;;;;;;;;;5111631;28;20441;-78
2022/05/04 02:07:34;;;;;;;;;;;;;;;;;;5092070;28;19942;-78
2022/05/04 02:09:59;;;;;;;;;;;;;;;;;;5089705;28;19924;-77
2022/05/04 02:12:26;;;;;;;;;;;;;;;;;;5090238;28;19920;-77
2022/05/04 02:14:51;;;;;;;;;;;;;;;;;;5090260;28;20374;-77
2022/05/04 02:17:16;;;;;;;;;;;;;;;;;;5089721;28;19923;-76
2022/05/04 02:19:42;;;;;;;;;;;;;;;;;;5090118;28;19916;-77
2022/05/04 02:22:07;;;;;;;;;;;;;;;;;;5091403;28;19959;-77
2022/05/04 02:24:32;;;;;;;;;;;;;;;;;;5091000;28;19963;-77
2022/05/04 02:26:58;;;;;;;;;;;;;;;;;;5090764;28;19923;-77
2022/05/04 02:29:23;;;;;;;;;;;;;;;;;;5091737;28;19920;-77
2022/05/04 02:31:48;;;;;;;;;;;;;;;;;;5090956;28;19916;-76
2022/05/04 02:34:14;;;;;;;;;;;;;;;;;;5093837;28;19923;-77
2022/05/04 02:39:23;;;;;;;;;;;;;;;;;;5093784;28;19955;-77
2022/05/04 02:41:51;;;;;;;;;;;;;;;;;;5093978;28;19916;-77
2022/05/04 02:44:17;;;;;;;;;;;;;;;;;;5093365;28;19916;-77
2022/05/04 02:46:42;;;;;;;;;;;;;;;;;;5094042;28;20057;-77
2022/05/04 02:49:08;;;;;;;;;;;;;;;;;;5094019;28;19916;-77
2022/05/04 02:51:33;;;;;;;;;;;;;;;;;;5093848;28;19920;-77
2022/05/04 02:53:58;;;;;;;;;;;;;;;;;;5093234;28;20435;-77
2022/05/04 02:56:24;;;;;;;;;;;;;;;;;;5093751;28;20011;-77
2022/05/04 02:58:51;;;;;;;;;;;;;;;;;;5092881;28;19977;-78
2022/05/04 03:04:08;;;;;;;;;;;;;;;;;;5092003;28;19916;-76
2022/05/04 03:06:33;;;;;;;;;;;;;;;;;;5091631;28;20366;-77
2022/05/04 03:08:59;;;;;;;;;;;;;;;;;;5092064;28;19970;-77
2022/05/04 03:14:08;;;;;;;;;;;;;;;;;;5089851;28;19916;-77
2022/05/04 03:16:34;;;;;;;;;;;;;;;;;;5092010;28;19923;-77
2022/05/04 03:19:00;;;;;;;;;;;;;;;;;;5089154;28;19916;-77
2022/05/04 03:21:26;;;;;;;;;;;;;;;;;;5090744;28;19926;-77
2022/05/04 03:23:51;;;;;;;;;;;;;;;;;;5091291;28;19946;-77
2022/05/04 03:26:17;;;;;;;;;;;;;;;;;;5089746;28;20372;-77
2022/05/04 03:28:43;;;;;;;;;;;;;;;;;;5092177;28;20353;-77
2022/05/04 03:31:08;;;;;;;;;;;;;;;;;;5093908;28;19927;-77
2022/05/04 03:33:33;;;;;;;;;;;;;;;;;;5094002;28;19916;-77
2022/05/04 03:35:59;;;;;;;;;;;;;;;;;;5095752;28;19916;-77
2022/05/04 03:38:25;;;;;;;;;;;;;;;;;;5093833;28;19962;-77
2022/05/04 03:40:50;;;;;;;;;;;;;;;;;;5097422;28;19916;-77
2022/05/04 03:43:15;;;;;;;;;;;;;;;;;;5097413;28;19923;-77
2022/05/04 03:45:41;;;;;;;;;;;;;;;;;;5096435;28;19917;-77
2022/05/04 03:48:06;;;;;;;;;;;;;;;;;;5097166;28;19916;-77
2022/05/04 03:50:31;;;;;;;;;;;;;;;;;;5096547;28;19920;-77
2022/05/04 03:52:57;;;;;;;;;;;;;;;;;;5096085;28;20277;-77
2022/05/04 03:55:22;;;;;;;;;;;;;;;;;;5096959;28;19924;-77
2022/05/04 03:57:47;;;;;;;;;;;;;;;;;;5095813;28;19916;-77
2022/05/04 04:00:12;;;;;;;;;;;;;;;;;;5096729;28;19916;-77
2022/05/04 04:02:38;;;;;;;;;;;;;;;;;;5096737;28;20370;-77
2022/05/04 04:05:04;;;;;;;;;;;;;;;;;;5097059;28;20293;-78
2022/05/04 04:07:29;;;;;;;;;;;;;;;;;;5096910;28;20338;-77
2022/05/04 04:09:54;;;;;;;;;;;;;;;;;;5096893;28;20293;-77
2022/05/04 04:12:19;;;;;;;;;;;;;;;;;;5095562;28;20397;-78
2022/05/04 04:14:45;;;;;;;;;;;;;;;;;;5096102;28;19916;-77
2022/05/04 04:17:10;;;;;;;;;;;;;;;;;;5096664;28;20002;-77
2022/05/04 04:19:35;;;;;;;;;;;;;;;;;;5096698;28;19955;-77
2022/05/04 04:22:01;;;;;;;;;;;;;;;;;;5094912;28;19908;-77
2022/05/04 04:24:27;;;;;;;;;;;;;;;;;;5097027;28;19916;-77
2022/05/04 04:26:52;;;;;;;;;;;;;;;;;;5095439;28;20399;-77
2022/05/04 04:29:17;;;;;;;;;;;;;;;;;;5096410;28;19962;-77
2022/05/04 04:31:43;;;;;;;;;;;;;;;;;;5095659;28;20358;-77
2022/05/04 04:34:08;;;;;;;;;;;;;;;;;;5096498;28;19920;-76
2022/05/04 04:36:34;;;;;;;;;;;;;;;;;;5096414;28;20011;-77
2022/05/04 04:38:59;;;;;;;;;;;;;;;;;;5094638;28;20386;-77
2022/05/04 04:41:24;;;;;;;;;;;;;;;;;;5095094;28;20013;-77
2022/05/04 04:43:50;;;;;;;;;;;;;;;;;;5095308;28;19923;-77
2022/05/04 04:46:15;;;;;;;;;;;;;;;;;;5094725;28;19920;-76
2022/05/04 04:48:40;;;;;;;;;;;;;;;;;;5095922;28;19959;-76
2022/05/04 04:51:06;;;;;;;;;;;;;;;;;;5092497;28;19924;-76
2022/05/04 04:53:31;;;;;;;;;;;;;;;;;;5093618;28;19920;-76
2022/05/04 04:55:57;;;;;;;;;;;;;;;;;;5092685;28;19920;-76
2022/05/04 04:58:22;;;;;;;;;;;;;;;;;;5093476;28;19924;-76
2022/05/04 05:00:48;;;;;;;;;;;;;;;;;;5093749;28;19969;-76
2022/05/04 05:03:13;;;;;;;;;;;;;;;;;;5094701;28;19961;-76
2022/05/04 05:05:39;;;;;;;;;;;;;;;;;;5093424;28;19916;-77
2022/05/04 05:08:04;;;;;;;;;;;;;;;;;;5093202;28;20019;-77
2022/05/04 05:10:30;;;;;;;;;;;;;;;;;;5095693;28;20077;-76
2022/05/04 05:12:55;;;;;;;;;;;;;;;;;;5093846;28;19927;-77
2022/05/04 05:18:04;;;;;;;;;;;;;;;;;;5093111;28;19939;-77
2022/05/04 05:20:33;;;;;;;;;;;;;;;;;;5093148;28;19916;-77
2022/05/04 05:22:59;;;;;;;;;;;;;;;;;;5092180;28;20289;-77
2022/05/04 05:25:24;;;;;;;;;;;;;;;;;;5092825;28;19916;-77
2022/05/04 05:27:50;;;;;;;;;;;;;;;;;;5094138;28;19923;-77
2022/05/04 05:30:15;;;;;;;;;;;;;;;;;;5094981;28;19973;-77
2022/05/04 05:32:41;;;;;;;;;;;;;;;;;;5095109;28;19923;-77
2022/05/04 05:35:06;;;;;;;;;;;;;;;;;;5094276;28;19920;-76
2022/05/04 05:37:32;;;;;;;;;;;;;;;;;;5095285;28;19969;-77
2022/05/04 05:39:57;;;;;;;;;;;;;;;;;;5093788;28;19920;-77
2022/05/04 05:42:23;;;;;;;;;;;;;;;;;;5093765;28;20122;-76
2022/05/04 05:44:48;;;;;;;;;;;;;;;;;;5094069;28;19970;-76
2022/05/04 05:47:13;;;;;;;;;;;;;;;;;;5094971;28;19923;-77
2022/05/04 05:49:39;;;;;;;;;;;;;;;;;;5094915;28;19920;-78
2022/05/04 05:52:07;;;;;;;;;;;;;;;;;;5094168;28;20343;-77
2022/05/04 05:54:32;;;;;;;;;;;;;;;;;;5093809;28;19916;-78
2022/05/04 05:56:58;;;;;;;;;;;;;;;;;;5096128;28;19926;-77
2022/05/04 05:59:23;;;;;;;;;;;;;;;;;;5094853;28;19916;-79
2022/05/04 06:01:48;;;;;;;;;;;;;;;;;;5094891;28;19916;-77
2022/05/04 06:04:14;;;;;;;;;;;;;;;;;;5094213;28;19923;-77
2022/05/04 06:06:39;;;;;;;;;;;;;;;;;;5094258;28;19916;-77
2022/05/04 06:09:05;;;;;;;;;;;;;;;;;;5095215;28;20266;-77
2022/05/04 06:11:31;;;;;;;;;;;;;;;;;;5097064;28;19920;-79
2022/05/04 06:13:56;;;;;;;;;;;;;;;;;;5077696;28;19919;-77
2022/05/04 06:16:22;;;;;;;;;;;;;;;;;;5091348;28;19919;-77
2022/05/04 06:18:47;;;;;;;;;;;;;;;;;;5093073;28;20010;-77
2022/05/04 06:21:12;;;;;;;;;;;;;;;;;;5091045;28;19916;-77
2022/05/04 06:23:38;;;;;;;;;;;;;;;;;;5091959;28;19916;-77
2022/05/04 06:26:03;;;;;;;;;;;;;;;;;;5094220;28;20010;-77
2022/05/04 06:28:28;;;;;;;;;;;;;;;;;;5094238;28;19916;-77
2022/05/04 06:36:22;;;;;;;;;;;;;;;;;;5093025;28;20010;-77
2022/05/04 06:38:47;;;;;;;;;;;;;;;;;;5092946;28;19952;-77
2022/05/04 06:41:13;;;;;;;;;;;;;;;;;;5073365;28;19916;-77
2022/05/04 06:43:39;;;;;;;;;;;;;;;;;;5091558;28;19922;-77
2022/05/04 06:46:05;;;;;;;;;;;;;;;;;;5091560;28;20006;-76
2022/05/04 06:48:31;;;;;;;;;;;;;;;;;;5091655;28;19916;-77
2022/05/04 06:50:56;;;;;;;;;;;;;;;;;;5091166;28;19931;-76
2022/05/04 06:53:21;;;;;;;;;;;;;;;;;;5091565;28;19968;-77
2022/05/04 06:55:47;;;;;;;;;;;;;;;;;;5090122;28;19920;-77
2022/05/04 06:58:12;;;;;;;;;;;;;;;;;;5093748;28;19916;-77
2022/05/04 07:00:37;;;;;;;;;;;;;;;;;;5094147;28;20381;-77
2022/05/04 07:03:03;;;;;;;;;;;;;;;;;;5097889;28;19969;-77
2022/05/04 07:05:28;;;;;;;;;;;;;;;;;;5099337;28;19916;-77
2022/05/04 07:07:53;;;;;;;;;;;;;;;;;;5100729;28;19916;-77
2022/05/04 07:10:19;;;;;;;;;;;;;;;;;;5100495;28;19985;-77
2022/05/04 07:12:44;;;;;;;;;;;;;;;;;;5099547;28;19916;-77
2022/05/04 07:15:09;;;;;;;;;;;;;;;;;;5096912;28;19916;-77
2022/05/04 07:17:34;;;;;;;;;;;;;;;;;;5098271;28;19916;-77
2022/05/04 07:20:00;;;;;;;;;;;;;;;;;;5098535;28;19916;-77
2022/05/04 07:22:25;;;;;;;;;;;;;;;;;;5096672;28;19920;-77
2022/05/04 07:24:51;;;;;;;;;;;;;;;;;;5097751;28;19916;-77
2022/05/04 07:27:16;;;;;;;;;;;;;;;;;;5098952;28;20006;-77
2022/05/04 07:29:46;;;;;;;;;;;;;;;;;;5098100;28;19916;-77
2022/05/04 07:32:12;;;;;;;;;;;;;;;;;;5099543;28;19920;-77
2022/05/04 07:34:37;;;;;;;;;;;;;;;;;;5099235;28;20366;-77
2022/05/04 07:37:03;;;;;;;;;;;;;;;;;;5100220;28;19923;-77
2022/05/04 07:42:21;;;;;;;;;;;;;;;;;;5100395;28;19916;-77
2022/05/04 07:44:56;;;;;;;;;;;;;;;;;;5097963;28;20057;-77
2022/05/04 07:47:21;;;;;;;;;;;;;;;;;;5100150;28;19931;-77
2022/05/04 07:49:47;;;;;;;;;;;;;;;;;;5100167;28;20318;-77
2022/05/04 07:52:12;;;;;;;;;;;;;;;;;;5095855;28;19969;-77
2022/05/04 07:54:37;;;;;;;;;;;;;;;;;;5098196;28;20301;-76
2022/05/04 07:57:03;;;;;;;;;;;;;;;;;;5098144;28;20002;-77
2022/05/04 07:59:28;;;;;;;;;;;;;;;;;;5098332;28;19923;-77
2022/05/04 08:04:37;;;;;;;;;;;;;;;;;;5098742;28;20386;-78
2022/05/04 08:07:04;;;;;;;;;;;;;;;;;;5099461;28;20002;-77
2022/05/04 08:09:34;;;;;;;;;;;;;;;;;;5098392;28;19918;-78
2022/05/04 08:12:00;;;;;;;;;;;;;;;;;;5099934;28;20069;-77
2022/05/04 08:14:25;;;;;;;;;;;;;;;;;;5096184;28;19960;-77
2022/05/04 08:16:50;;;;;;;;;;;;;;;;;;5096544;28;19923;-77
2022/05/04 08:19:16;;;;;;;;;;;;;;;;;;5097490;28;19916;-77
2022/05/04 08:21:41;;;;;;;;;;;;;;;;;;5095916;28;19916;-77
2022/05/04 08:24:07;;;;;;;;;;;;;;;;;;5096886;28;19920;-79
2022/05/04 08:26:32;;;;;;;;;;;;;;;;;;5097290;28;20347;-77
2022/05/04 08:28:58;;;;;;;;;;;;;;;;;;5096550;28;19916;-78
2022/05/04 08:31:23;;;;;;;;;;;;;;;;;;5096100;28;19926;-76
2022/05/04 08:33:49;;;;;;;;;;;;;;;;;;5097720;28;20012;-78
2022/05/04 08:36:14;;;;;;;;;;;;;;;;;;5099522;28;19956;-82
2022/05/04 08:38:39;;;;;;;;;;;;;;;;;;5113212;28;19916;-82
2022/05/04 08:41:06;;;;;;;;;;;;;;;;;;5119205;28;19926;-83
2022/05/04 08:43:32;;;;;;;;;;;;;;;;;;5118399;28;19915;-79
2022/05/04 08:45:59;;;;;;;;;;;;;;;;;;5089381;28;20428;-81
2022/05/04 08:48:24;;;;;;;;;;;;;;;;;;5079465;28;20386;-80
2022/05/04 08:50:50;;;;;;;;;;;;;;;;;;5080987;28;19983;-82
2022/05/04 08:53:16;;;;;;;;;;;;;;;;;;5081266;28;19912;-80
2022/05/04 08:55:43;;;;;;;;;;;;;;;;;;5079171;28;19928;-84
2022/05/04 08:58:08;;;;;;;;;;;;;;;;;;5078677;28;19923;-83
2022/05/04 09:00:34;;;;;;;;;;;;;;;;;;5095035;28;20490;-82
2022/05/04 09:02:59;;;;;;;;;;;;;;;;;;5102485;28;19912;-79
2022/05/04 09:05:26;;;;;;;;;;;;;;;;;;5095692;28;20036;-78
2022/05/04 09:07:53;;;;;;;;;;;;;;;;;;5095417;28;19916;-77
2022/05/04 09:10:18;;;;;;;;;;;;;;;;;;5095503;28;20046;-76
2022/05/04 09:12:44;;;;;;;;;;;;;;;;;;5095622;28;20018;-77
2022/05/04 09:15:17;;;;;;;;;;;;;;;;;;5090227;28;19923;-78
2022/05/04 09:17:42;;;;;;;;;;;;;;;;;;5075907;28;20052;-79
2022/05/04 09:22:52;;;;;;;;;;;;;;;;;;5075614;28;19923;-79
2022/05/04 09:25:19;;;;;;;;;;;;;;;;;;5073868;28;19923;-78
2022/05/04 09:27:45;;;;;;;;;;;;;;;;;;5073975;28;19967;-78
2022/05/04 09:30:11;;;;;;;;;;;;;;;;;;5074703;28;19971;-78
2022/05/04 09:32:40;;;;;;;;;;;;;;;;;;5075065;28;19921;-78
2022/05/04 09:35:11;;;;;;;;;;;;;;;;;;5073014;28;19920;-78
2022/05/04 09:45:55;;;;;;;;;;;;;;;;;;5096795;28;19982;-78
2022/05/04 09:48:30;;;;;;;;;;;;;;;;;;5095251;28;20301;-77
2022/05/04 09:51:04;;;;;;;;;;;;;;;;;;5094986;28;20053;-78
2022/05/04 09:53:29;;;;;;;;;;;;;;;;;;5094341;28;19939;-76
2022/05/04 09:55:55;;;;;;;;;;;;;;;;;;5095046;28;20350;-76
2022/05/04 09:58:21;;;;;;;;;;;;;;;;;;5094874;28;20350;-76
2022/05/04 10:00:46;;;;;;;;;;;;;;;;;;5093761;28;19920;-77
2022/05/04 10:03:13;;;;;;;;;;;;;;;;;;5099821;28;19965;-78
2022/05/04 10:05:38;;;;;;;;;;;;;;;;;;5094684;28;19920;-77
2022/05/04 10:08:04;;;;;;;;;;;;;;;;;;5093310;28;20247;-76
2022/05/04 10:10:30;;;;;;;;;;;;;;;;;;5099042;28;20007;-78
2022/05/04 10:12:55;;;;;;;;;;;;;;;;;;5097600;28;20332;-78
2022/05/04 10:15:21;;;;;;;;;;;;;;;;;;5097021;28;20002;-78
2022/05/04 10:17:58;;;;;;;;;;;;;;;;;;5100282;28;19912;-78
2022/05/04 10:20:42;;;;;;;;;;;;;;;;;;5100369;28;19916;-80
2022/05/04 10:23:13;;;;;;;;;;;;;;;;;;5091835;28;19916;-81
2022/05/04 10:25:38;;;;;;;;;;;;;;;;;;5079130;28;19923;-80
2022/05/04 10:28:10;;;;;;;;;;;;;;;;;;5078550;28;19952;-77
2022/05/04 10:30:44;;;;;;;;;;;;;;;;;;5081372;28;19927;-77
2022/05/04 10:33:10;;;;;;;;;;;;;;;;;;5096922;28;19923;-78
2022/05/04 10:35:38;;;;;;;;;;;;;;;;;;5093671;28;19998;-78
2022/05/04 10:38:10;;;;;;;;;;;;;;;;;;5093095;28;20010;-77
2022/05/04 10:40:35;;;;;;;;;;;;;;;;;;5093049;28;19923;-77
2022/05/04 10:43:02;;;;;;;;;;;;;;;;;;5092509;28;19916;-77
2022/05/04 10:45:33;;;;;;;;;;;;;;;;;;5092777;28;19924;-76
2022/05/04 10:48:17;;;;;;;;;;;;;;;;;;5098298;28;19923;-78
2022/05/04 10:51:06;;;;;;;;;;;;;;;;;;5091806;28;20646;-78
2022/05/04 10:53:31;;;;;;;;;;;;;;;;;;5077350;28;20411;-78
2022/05/04 10:56:00;;;;;;;;;;;;;;;;;;5063499;28;19920;-78
2022/05/04 10:58:38;;;;;;;;;;;;;;;;;;5078391;28;19970;-78
2022/05/04 11:01:04;;;;;;;;;;;;;;;;;;5095558;28;19916;-78
2022/05/04 11:03:37;;;;;;;;;;;;;;;;;;5096175;28;19942;-78
2022/05/04 11:06:03;;;;;;;;;;;;;;;;;;5095654;28;19968;-78
2022/05/04 11:08:33;;;;;;;;;;;;;;;;;;5096204;28;19912;-78
2022/05/04 11:10:58;;;;;;;;;;;;;;;;;;5095427;28;19920;-78
2022/05/04 11:13:24;;;;;;;;;;;;;;;;;;5093300;28;20472;-78
2022/05/04 11:15:55;;;;;;;;;;;;;;;;;;5095283;28;19916;-78
2022/05/04 11:18:20;;;;;;;;;;;;;;;;;;5096057;28;19920;-78
2022/05/04 11:20:46;;;;;;;;;;;;;;;;;;5095817;28;20416;-78
2022/05/04 11:23:12;;;;;;;;;;;;;;;;;;5097495;28;20413;-78
2022/05/04 11:25:37;;;;;;;;;;;;;;;;;;5098600;28;19970;-78
2022/05/04 11:28:03;;;;;;;;;;;;;;;;;;5098052;28;19928;-79
2022/05/04 11:30:28;;;;;;;;;;;;;;;;;;5097092;28;19920;-78
2022/05/04 11:32:53;;;;;;;;;;;;;;;;;;5097917;28;19962;-78
2022/05/04 11:35:19;;;;;;;;;;;;;;;;;;5097689;28;20251;-78
2022/05/04 11:37:44;;;;;;;;;;;;;;;;;;5098221;28;19923;-78
2022/05/04 11:40:11;;;;;;;;;;;;;;;;;;5095329;28;19916;-78
2022/05/04 11:42:36;;;;;;;;;;;;;;;;;;5096290;28;20591;-78
2022/05/04 11:45:02;;;;;;;;;;;;;;;;;;5097267;28;20014;-78
2022/05/04 11:47:28;;;;;;;;;;;;;;;;;;5096816;28;19928;-78
2022/05/04 11:49:53;;;;;;;;;;;;;;;;;;5098508;28;19915;-78
2022/05/04 11:52:20;;;;;;;;;;;;;;;;;;5098436;28;19923;-78
2022/05/04 11:54:45;;;;;;;;;;;;;;;;;;5099010;28;20015;-79
2022/05/04 11:57:14;;;;;;;;;;;;;;;;;;5095908;28;19952;-78
2022/05/04 11:59:39;;;;;;;;;;;;;;;;;;5098124;28;19962;-78
2022/05/04 12:02:05;;;;;;;;;;;;;;;;;;5087712;28;19960;-77
2022/05/04 12:04:30;;;;;;;;;;;;;;;;;;5080180;28;20411;-78
2022/05/04 12:06:59;;;;;;;;;;;;;;;;;;5078870;28;19923;-79
2022/05/04 12:09:24;;;;;;;;;;;;;;;;;;5079760;28;19924;-78
2022/05/04 12:11:50;;;;;;;;;;;;;;;;;;5080726;28;19925;-77
2022/05/04 12:14:16;;;;;;;;;;;;;;;;;;5077285;28;19917;-77
2022/05/04 12:16:42;;;;;;;;;;;;;;;;;;5095956;28;20390;-77
2022/05/04 12:19:07;;;;;;;;;;;;;;;;;;5095683;28;20293;-77
2022/05/04 12:21:33;;;;;;;;;;;;;;;;;;5096653;28;19916;-77
2022/05/04 12:24:00;;;;;;;;;;;;;;;;;;5095465;28;19916;-77
2022/05/04 12:26:25;;;;;;;;;;;;;;;;;;5096749;28;19920;-78
2022/05/04 12:34:22;;;;;;;;;;;;;;;;;;5094250;28;19916;-77
2022/05/04 12:36:48;;;;;;;;;;;;;;;;;;5096187;28;19969;-77
2022/05/04 12:39:13;;;;;;;;;;;;;;;;;;5092015;28;19924;-77
2022/05/04 12:41:38;;;;;;;;;;;;;;;;;;5084669;28;19921;-77
2022/05/04 12:44:04;;;;;;;;;;;;;;;;;;5085982;28;19920;-77
2022/05/04 12:46:30;;;;;;;;;;;;;;;;;;5085475;28;19923;-77
2022/05/04 12:48:56;;;;;;;;;;;;;;;;;;5086472;28;19916;-77
2022/05/04 12:51:24;;;;;;;;;;;;;;;;;;5085082;28;19936;-76
2022/05/04 12:53:49;;;;;;;;;;;;;;;;;;5083654;28;19916;-77
2022/05/04 12:59:01;;;;;;;;;;;;;;;;;;5095016;28;19916;-76
2022/05/04 13:01:27;;;;;;;;;;;;;;;;;;5095346;28;19920;-76
2022/05/04 13:03:52;;;;;;;;;;;;;;;;;;5095091;28;19969;-77
2022/05/04 13:06:20;;;;;;;;;;;;;;;;;;5095811;28;20060;-76
2022/05/04 13:08:48;;;;;;;;;;;;;;;;;;5095676;28;19916;-76
2022/05/04 13:11:13;;;;;;;;;;;;;;;;;;5095651;28;19916;-76
2022/05/04 13:13:39;;;;;;;;;;;;;;;;;;5095558;28;20330;-77
2022/05/04 13:16:04;;;;;;;;;;;;;;;;;;5094056;28;20014;-76
2022/05/04 13:18:29;;;;;;;;;;;;;;;;;;5094160;28;20389;-76
2022/05/04 13:20:55;;;;;;;;;;;;;;;;;;5094882;28;20007;-77
2022/05/04 13:23:20;;;;;;;;;;;;;;;;;;5096713;28;19916;-79
2022/05/04 13:25:45;;;;;;;;;;;;;;;;;;5096499;28;20604;-77
2022/05/04 13:28:11;;;;;;;;;;;;;;;;;;5093986;28;19916;-77
2022/05/04 13:30:38;;;;;;;;;;;;;;;;;;5095214;28;20366;-79
2022/05/04 13:33:03;;;;;;;;;;;;;;;;;;5094899;28;19938;-78
2022/05/04 13:35:29;;;;;;;;;;;;;;;;;;5095430;28;19963;-78
2022/05/04 13:37:55;;;;;;;;;;;;;;;;;;5095073;28;20348;-77
2022/05/04 13:40:20;;;;;;;;;;;;;;;;;;5094210;28;19915;-78
2022/05/04 13:42:47;;;;;;;;;;;;;;;;;;5094948;28;20007;-78
2022/05/04 13:45:12;;;;;;;;;;;;;;;;;;5095362;28;19916;-79
2022/05/04 13:47:38;;;;;;;;;;;;;;;;;;5096315;28;19916;-78
2022/05/04 13:53:13;;;;;;;;;;;;;;;;;;5096427;28;19971;-79
2022/05/04 13:56:55;;;;;;;;;;;;;;;;;;5093231;28;19934;-80
2022/05/04 13:59:22;;;;;;;;;;;;;;;;;;5096461;28;19924;-78
2022/05/04 14:01:48;;;;;;;;;;;;;;;;;;5094523;28;19916;-77
2022/05/04 14:04:43;;;;;;;;;;;;;;;;;;5094743;28;19916;-79
2022/05/04 14:08:01;;;;;;;;;;;;;;;;;;5099817;28;19961;-78
2022/05/04 14:10:30;;;;;;;;;;;;;;;;;;5113769;28;20415;-79
2022/05/04 14:12:57;;;;;;;;;;;;;;;;;;5096045;28;19915;-78
2022/05/04 14:15:22;;;;;;;;;;;;;;;;;;5116459;28;19920;-78
2022/05/04 14:17:48;;;;;;;;;;;;;;;;;;5116465;28;19916;-79
2022/05/04 14:20:13;;;;;;;;;;;;;;;;;;5116689;28;19969;-78
2022/05/04 14:22:39;;;;;;;;;;;;;;;;;;5113404;28;19916;-77
2022/05/04 14:25:04;;;;;;;;;;;;;;;;;;5113120;28;20053;-79
2022/05/04 14:27:29;;;;;;;;;;;;;;;;;;5116141;28;19923;-79
2022/05/04 14:29:55;;;;;;;;;;;;;;;;;;5099166;28;20041;-78
2022/05/04 14:32:20;;;;;;;;;;;;;;;;;;5116107;28;20006;-78
2022/05/04 14:34:45;;;;;;;;;;;;;;;;;;5099588;28;19919;-79
2022/05/04 14:37:11;;;;;;;;;;;;;;;;;;5111494;28;19916;-78
2022/05/04 14:39:36;;;;;;;;;;;;;;;;;;5095908;28;19920;-77
2022/05/04 14:42:02;;;;;;;;;;;;;;;;;;5093732;28;19923;-76
2022/05/04 14:44:27;;;;;;;;;;;;;;;;;;5093275;28;19970;-76
2022/05/04 14:46:52;;;;;;;;;;;;;;;;;;5093497;28;19920;-76
2022/05/04 14:49:18;;;;;;;;;;;;;;;;;;5094172;28;19959;-76
2022/05/04 14:51:43;;;;;;;;;;;;;;;;;;5092149;28;20003;-77
2022/05/04 14:54:09;;;;;;;;;;;;;;;;;;5088153;28;19924;-76
2022/05/04 14:56:34;;;;;;;;;;;;;;;;;;5073441;28;19927;-77
2022/05/04 14:58:59;;;;;;;;;;;;;;;;;;5074248;28;19923;-79
2022/05/04 15:01:26;;;;;;;;;;;;;;;;;;5074973;28;19931;-77
2022/05/04 15:06:35;;;;;;;;;;;;;;;;;;5095143;28;19944;-77
2022/05/04 15:09:00;;;;;;;;;;;;;;;;;;5094613;28;19973;-78
2022/05/04 15:11:25;;;;;;;;;;;;;;;;;;5093025;28;19920;-78
2022/05/04 15:13:51;;;;;;;;;;;;;;;;;;5097387;28;19916;-78
2022/05/04 15:16:16;;;;;;;;;;;;;;;;;;5096544;28;19920;-79
2022/05/04 15:18:42;;;;;;;;;;;;;;;;;;5097324;28;19923;-80
2022/05/04 15:21:07;;;;;;;;;;;;;;;;;;5097260;28;19916;-79
2022/05/04 15:23:33;;;;;;;;;;;;;;;;;;5096601;28;20365;-78
2022/05/04 15:25:58;;;;;;;;;;;;;;;;;;5093606;28;19923;-78
2022/05/04 15:28:26;;;;;;;;;;;;;;;;;;5099688;28;19966;-81
2022/05/04 15:30:51;;;;;;;;;;;;;;;;;;5091738;28;19921;-80
2022/05/04 15:33:17;;;;;;;;;;;;;;;;;;5087877;28;19916;-80
2022/05/04 15:35:42;;;;;;;;;;;;;;;;;;5087292;28;19924;-79
2022/05/04 15:38:07;;;;;;;;;;;;;;;;;;5082596;28;20012;-80
2022/05/04 15:40:34;;;;;;;;;;;;;;;;;;5086285;28;19955;-77
2022/05/04 15:42:59;;;;;;;;;;;;;;;;;;5084588;28;20003;-78
2022/05/04 15:45:25;;;;;;;;;;;;;;;;;;5089622;28;19956;-79
2022/05/04 15:47:51;;;;;;;;;;;;;;;;;;5093931;28;19916;-78
2022/05/04 15:50:17;;;;;;;;;;;;;;;;;;5086135;28;19927;-79
2022/05/04 15:52:43;;;;;;;;;;;;;;;;;;5086020;28;20003;-79
2022/05/04 15:55:09;;;;;;;;;;;;;;;;;;5090512;28;20416;-77
2022/05/04 15:57:34;;;;;;;;;;;;;;;;;;5085186;28;19943;-78
2022/05/04 16:00:00;;;;;;;;;;;;;;;;;;5097691;28;20362;-77
2022/05/04 16:05:10;;;;;;;;;;;;;;;;;;5085851;28;19955;-78
2022/05/04 16:07:36;;;;;;;;;;;;;;;;;;5076466;28;19986;-83
2022/05/04 16:10:01;;;;;;;;;;;;;;;;;;5079592;28;19917;-77
2022/05/04 16:12:27;;;;;;;;;;;;;;;;;;5096611;28;20300;-76
2022/05/04 16:14:52;;;;;;;;;;;;;;;;;;5096789;28;19923;-76
2022/05/04 16:22:45;;;;;;;;;;;;;;;;;;5095870;28;19951;-76
2022/05/04 16:25:10;;;;;;;;;;;;;;;;;;5096268;28;19955;-76
2022/05/04 16:27:36;;;;;;;;;;;;;;;;;;5097184;28;19924;-76
2022/05/04 16:30:01;;;;;;;;;;;;;;;;;;5094502;28;19919;-77
2022/05/04 16:32:27;;;;;;;;;;;;;;;;;;5097047;28;19966;-76
2022/05/04 16:34:53;;;;;;;;;;;;;;;;;;5095059;28;19959;-77
2022/05/04 16:37:18;;;;;;;;;;;;;;;;;;5086604;28;19966;-77
2022/05/04 16:39:43;;;;;;;;;;;;;;;;;;5076420;28;19963;-76
2022/05/04 16:42:09;;;;;;;;;;;;;;;;;;5082081;28;19916;-77
2022/05/04 16:44:34;;;;;;;;;;;;;;;;;;5096247;28;19920;-76
2022/05/04 16:46:59;;;;;;;;;;;;;;;;;;5096271;28;19922;-79
2022/05/04 16:49:25;;;;;;;;;;;;;;;;;;5097694;28;19916;-79
2022/05/04 16:51:51;;;;;;;;;;;;;;;;;;5096337;28;20266;-78
2022/05/04 16:54:16;;;;;;;;;;;;;;;;;;5096296;28;19961;-78
2022/05/04 16:56:41;;;;;;;;;;;;;;;;;;5096016;28;20358;-75
2022/05/04 16:59:07;;;;;;;;;;;;;;;;;;5096050;28;20472;-77
2022/05/04 17:01:32;;;;;;;;;;;;;;;;;;5094804;28;19916;-76
2022/05/04 17:03:59;;;;;;;;;;;;;;;;;;5095015;28;19916;-76
2022/05/04 17:06:24;;;;;;;;;;;;;;;;;;5095868;28;19916;-76
2022/05/04 17:08:50;;;;;;;;;;;;;;;;;;5093717;28;19923;-76
2022/05/04 17:11:15;;;;;;;;;;;;;;;;;;5095019;28;20320;-76
2022/05/04 17:13:40;;;;;;;;;;;;;;;;;;5096463;28;19937;-76
2022/05/04 17:16:06;;;;;;;;;;;;;;;;;;5094445;28;19920;-76
2022/05/04 17:18:32;;;;;;;;;;;;;;;;;;5095654;28;19962;-76
2022/05/04 17:20:57;;;;;;;;;;;;;;;;;;5094399;28;19967;-76
2022/05/04 17:23:23;;;;;;;;;;;;;;;;;;5095795;28;19920;-76
2022/05/04 17:25:49;;;;;;;;;;;;;;;;;;5095808;28;19985;-76
2022/05/04 17:28:14;;;;;;;;;;;;;;;;;;5095704;28;19916;-79
2022/05/04 17:30:39;;;;;;;;;;;;;;;;;;5095706;28;20427;-77
2022/05/04 17:38:33;;;;;;;;;;;;;;;;;;5076772;28;20275;-77
2022/05/04 17:41:00;;;;;;;;;;;;;;;;;;5094613;28;19916;-78